Time;durP1;ratioP1;P1;durP2;ratioP2;P2;SDS_P1;SDS_P2;PMS_P1;PMS_P2;Temp;Humidity;BMP_temperature;BMP_pressure;BME280_temperature;BME280_humidity;BME280_pressure;Samples;Min_cycle;Max_cycle;Signal;HPM_P1;HPM_P2
2021/10/31 00:01:40;;;;;;;22.50;20.10;;;10.60;74.40;;;9.36;79.27;97523.38;5082916;28;20536;-70
2021/10/31 00:04:07;;;;;;;20.93;18.73;;;10.60;74.50;;;9.38;79.17;97531.28;5084554;28;20514;-69
2021/10/31 00:06:35;;;;;;;21.70;19.47;;;10.50;74.60;;;9.37;79.81;97524.22;5088802;28;20455;-69
2021/10/31 00:09:06;;;;;;;21.73;19.50;;;10.50;74.60;;;9.28;79.43;97512.91;5083456;28;20452;-69
2021/10/31 00:11:33;;;;;;;22.70;19.87;;;10.50;74.70;;;9.37;79.14;97519.66;5086713;28;20467;-69
2021/10/31 00:14:01;;;;;;;24.30;19.87;;;10.50;74.60;;;9.40;79.69;97518.41;5085248;28;20812;-69
2021/10/31 00:16:28;;;;;;;22.07;19.73;;;10.50;74.70;;;9.32;79.48;97522.19;5086235;28;20594;-69
2021/10/31 00:18:55;;;;;;;22.90;19.97;;;10.50;74.60;;;9.26;79.89;97515.78;5101166;28;20464;-69
2021/10/31 00:21:25;;;;;;;22.57;20.10;;;10.50;74.90;;;9.30;80.47;97522.41;5081871;28;20452;-69
2021/10/31 00:23:53;;;;;;;24.20;21.70;;;10.50;75.00;;;9.41;79.91;97523.56;5085135;28;20462;-69
2021/10/31 00:26:21;;;;;;;21.87;19.67;;;10.50;75.00;;;9.38;80.17;97524.00;5089563;28;20452;-69
2021/10/31 00:28:48;;;;;;;24.47;21.30;;;10.60;75.30;;;9.29;80.24;97523.44;5089299;28;20464;-70
2021/10/31 00:31:15;;;;;;;24.50;21.50;;;10.50;75.20;;;9.22;80.42;97519.97;5086860;28;20453;-69
2021/10/31 00:33:42;;;;;;;23.53;21.03;;;10.40;75.30;;;9.20;81.18;97524.78;5117344;27;20674;-71
2021/10/31 00:36:09;;;;;;;22.40;20.00;;;10.40;75.30;;;9.21;80.97;97516.44;5085690;28;20571;-70
2021/10/31 00:38:36;;;;;;;27.10;20.70;;;10.40;75.40;;;9.16;80.66;97518.16;5087648;28;20838;-70
2021/10/31 00:41:05;;;;;;;22.70;20.30;;;10.30;75.60;;;9.13;81.24;97522.13;5087752;28;20494;-70
2021/10/31 00:43:32;;;;;;;26.10;21.30;;;10.30;75.60;;;9.15;80.46;97524.59;5081752;28;20503;-69
2021/10/31 00:45:59;;;;;;;23.10;20.77;;;10.30;75.80;;;9.13;80.88;97513.19;5085793;28;20452;-70
2021/10/31 00:48:26;;;;;;;25.13;20.70;;;10.30;75.90;;;9.21;80.69;97518.34;5088573;28;20551;-69
2021/10/31 00:50:53;;;;;;;25.33;20.70;;;10.40;75.70;;;9.15;80.83;97503.84;5089245;28;20987;-70
2021/10/31 00:53:20;;;;;;;24.73;20.80;;;10.40;75.60;;;9.31;80.91;97505.16;5083306;28;20583;-69
2021/10/31 00:55:48;;;;;;;23.17;20.57;;;10.40;75.60;;;9.34;79.98;97493.97;5086678;28;20479;-69
2021/10/31 00:58:18;;;;;;;21.60;19.40;;;10.60;75.20;;;9.47;78.61;97509.19;5086987;28;20572;-69
2021/10/31 01:00:46;;;;;;;20.97;18.80;;;10.60;74.60;;;9.37;79.24;97491.88;5084071;28;20541;-69
2021/10/31 01:03:13;;;;;;;21.50;19.30;;;10.60;74.50;;;9.43;78.54;97497.22;5102032;27;20509;-70
2021/10/31 01:05:47;;;;;;;20.67;18.47;;;10.60;74.50;;;9.56;78.88;97509.75;5083162;28;20497;-69
2021/10/31 01:08:37;;;;;;;20.90;18.80;;;10.70;74.20;;;9.62;78.18;97510.72;5086479;28;20519;-70
2021/10/31 01:11:29;;;;;;;21.17;18.97;;;10.70;74.10;;;9.52;78.53;97515.78;5086013;28;20463;-70
2021/10/31 01:14:39;;;;;;;20.90;18.70;;;10.70;74.10;;;9.59;77.87;97522.78;5084262;28;20468;-70
2021/10/31 01:17:27;;;;;;;19.83;17.80;;;10.80;73.80;;;9.53;78.52;97520.97;5037205;28;20469;-70
2021/10/31 01:20:10;;;;;;;21.33;19.03;;;10.70;74.10;;;9.58;78.44;97514.94;5080909;28;20521;-70
2021/10/31 01:23:02;;;;;;;20.53;18.53;;;10.70;73.90;;;9.63;77.96;97520.47;5086058;28;20463;-71
2021/10/31 01:25:46;;;;;;;19.57;17.13;;;10.80;73.80;;;9.50;79.11;97519.53;5086641;28;20448;-70
2021/10/31 01:28:31;;;;;;;19.93;17.90;;;10.70;74.10;;;9.45;78.82;97519.38;5086614;28;20456;-71
2021/10/31 01:31:10;;;;;;;20.67;17.23;;;10.70;74.40;;;9.61;78.78;97528.78;5092046;28;20542;-70
2021/10/31 01:33:45;;;;;;;19.03;17.00;;;10.70;74.10;;;9.46;78.81;97504.84;5085796;28;20565;-70
2021/10/31 01:36:29;;;;;;;20.63;18.50;;;10.70;74.20;;;9.61;78.43;97526.06;5084320;28;20479;-70
2021/10/31 01:39:08;;;;;;;21.73;17.70;;;10.80;74.20;;;9.59;78.68;97512.00;5080654;28;20471;-68
2021/10/31 01:41:48;;;;;;;21.83;17.57;;;10.70;73.90;;;9.59;78.50;97517.38;5085654;28;20781;-69
2021/10/31 01:44:26;;;;;;;18.17;16.37;;;10.80;74.10;;;9.49;78.86;97511.69;5082272;28;20462;-69
2021/10/31 01:47:02;;;;;;;18.87;16.87;;;10.80;74.30;;;9.63;78.94;97524.00;5117443;27;20487;-70
2021/10/31 01:49:46;;;;;;;17.03;15.43;;;10.80;74.30;;;9.52;80.08;97522.03;5081556;28;20559;-71
2021/10/31 01:52:18;;;;;;;19.10;17.10;;;10.70;74.60;;;9.51;80.44;97525.78;5099677;28;20479;-70
2021/10/31 01:54:52;;;;;;;18.50;16.80;;;10.70;74.90;;;9.54;80.13;97521.78;5084812;28;20471;-70
2021/10/31 01:57:22;;;;;;;18.37;16.43;;;10.70;74.90;;;9.51;80.00;97528.47;5084893;28;20501;-70
2021/10/31 01:59:57;;;;;;;17.80;16.00;;;10.70;75.20;;;9.53;80.12;97512.06;5083665;28;20463;-70
2021/10/31 02:02:29;;;;;;;18.80;16.90;;;10.70;75.30;;;9.75;78.81;97504.38;5081153;28;20540;-69
2021/10/31 02:04:57;;;;;;;18.40;16.40;;;10.90;74.90;;;9.85;79.33;97518.19;5084947;28;20542;-69
2021/10/31 02:07:26;;;;;;;18.10;16.27;;;10.90;74.50;;;9.82;78.94;97509.72;5085020;28;20456;-69
2021/10/31 02:09:54;;;;;;;17.90;16.10;;;11.00;74.60;;;9.91;79.11;97513.78;5080954;28;20456;-69
2021/10/31 02:12:22;;;;;;;17.60;15.80;;;11.00;74.60;;;9.82;79.26;97515.94;5079701;28;20555;-69
2021/10/31 02:14:50;;;;;;;17.40;15.33;;;11.00;74.70;;;9.74;78.88;97508.13;5086593;28;20464;-69
2021/10/31 02:17:19;;;;;;;18.43;16.17;;;10.90;74.60;;;9.69;78.96;97505.28;5084143;28;20494;-69
2021/10/31 02:19:48;;;;;;;18.33;16.20;;;10.80;74.60;;;9.59;79.85;97517.38;5084503;28;20832;-68
2021/10/31 02:22:24;;;;;;;17.40;15.50;;;10.80;74.60;;;9.58;79.62;97518.44;5079738;28;20537;-69
2021/10/31 02:24:53;;;;;;;17.70;16.00;;;10.80;74.60;;;9.75;78.82;97504.38;5083624;28;20454;-69
2021/10/31 02:27:22;;;;;;;17.83;16.00;;;10.90;74.60;;;9.66;78.86;97511.94;5102239;28;20492;-69
2021/10/31 02:29:53;;;;;;;16.77;15.17;;;10.80;74.30;;;9.61;79.35;97517.97;5082576;28;20567;-69
2021/10/31 02:32:23;;;;;;;16.00;14.40;;;10.80;74.50;;;9.73;78.81;97506.47;5089810;28;20444;-69
2021/10/31 02:34:51;;;;;;;17.70;15.83;;;10.80;74.10;;;9.73;78.51;97501.09;5101864;27;20493;-69
2021/10/31 02:37:19;;;;;;;16.77;15.17;;;10.90;74.20;;;9.63;79.71;97513.22;5088946;28;20476;-69
2021/10/31 02:39:46;;;;;;;16.87;15.17;;;10.90;74.40;;;9.52;79.78;97511.25;5085858;28;20460;-69
2021/10/31 02:42:15;;;;;;;17.00;15.30;;;10.70;74.20;;;9.63;78.34;97504.28;5090496;28;20460;-69
2021/10/31 02:44:42;;;;;;;17.60;15.80;;;10.80;74.30;;;9.48;79.37;97505.47;5087311;28;20517;-69
2021/10/31 02:47:17;;;;;;;20.70;16.27;;;10.70;74.30;;;9.39;78.99;97516.75;5089600;28;20459;-69
2021/10/31 02:49:45;;;;;;;17.50;15.77;;;10.60;74.40;;;9.32;79.81;97514.91;5089979;28;20459;-69
2021/10/31 02:52:21;;;;;;;15.43;13.93;;;10.50;74.70;;;9.44;79.57;97525.00;5119928;27;21096;-69
2021/10/31 02:55:00;;;;;;;16.63;14.83;;;10.50;74.80;;;9.42;80.33;97516.28;5088204;28;20488;-69
2021/10/31 02:57:37;;;;;;;16.33;14.63;;;10.60;74.90;;;9.37;80.18;97508.06;5084620;28;20884;-69
2021/10/31 03:00:07;;;;;;;15.80;14.20;;;10.50;75.10;;;9.43;79.89;97512.56;5088387;28;20982;-69
2021/10/31 03:02:35;;;;;;;16.53;14.90;;;10.50;75.10;;;9.50;79.73;97518.72;5083119;28;20524;-69
2021/10/31 03:05:02;;;;;;;16.27;14.57;;;10.60;75.30;;;9.51;79.64;97523.06;5087909;28;20516;-70
2021/10/31 03:07:29;;;;;;;17.03;15.23;;;10.60;75.10;;;9.49;79.95;97525.16;5087609;28;20452;-70
2021/10/31 03:09:56;;;;;;;15.50;14.00;;;10.60;75.00;;;9.50;80.18;97518.72;5082429;28;20461;-70
2021/10/31 03:12:23;;;;;;;15.70;14.10;;;10.60;75.10;;;9.44;80.01;97511.50;5085051;28;20532;-69
2021/10/31 03:14:52;;;;;;;17.57;15.10;;;10.70;74.90;;;9.41;79.58;97514.66;5101835;27;20456;-69
2021/10/31 03:17:18;;;;;;;15.07;13.57;;;10.60;74.90;;;9.41;79.90;97520.88;5080072;28;20550;-70
2021/10/31 03:19:46;;;;;;;14.47;12.97;;;10.60;75.00;;;9.45;79.61;97516.69;5086985;28;20539;-70
2021/10/31 03:22:14;;;;;;;14.27;12.87;;;10.60;74.80;;;9.36;80.05;97518.00;5087766;28;20459;-70
2021/10/31 03:24:41;;;;;;;13.83;12.50;;;10.60;74.80;;;9.44;80.27;97514.19;5087033;28;20500;-70
2021/10/31 03:27:08;;;;;;;15.90;14.30;;;10.60;74.90;;;9.41;79.63;97520.88;5089343;28;20484;-69
2021/10/31 03:29:35;;;;;;;13.53;12.33;;;10.60;74.90;;;9.37;79.88;97518.84;5083082;28;20543;-69
2021/10/31 03:32:04;;;;;;;15.10;13.60;;;10.60;74.90;;;9.30;80.53;97522.41;5087300;28;20560;-68
2021/10/31 03:34:31;;;;;;;16.73;14.97;;;10.50;75.00;;;9.14;80.99;97517.53;5088604;28;20464;-69
2021/10/31 03:36:58;;;;;;;15.77;13.90;;;10.40;75.30;;;9.11;81.46;97523.38;5082981;28;20518;-69
2021/10/31 03:39:25;;;;;;;17.17;13.67;;;10.30;75.40;;;9.02;81.05;97526.34;5085630;28;20526;-70
2021/10/31 03:41:52;;;;;;;14.97;13.47;;;10.20;75.80;;;9.04;81.62;97529.66;5085682;28;20460;-70
2021/10/31 03:44:20;;;;;;;15.10;13.50;;;10.20;76.00;;;8.87;81.79;97526.63;5086941;28;20470;-69
2021/10/31 03:46:47;;;;;;;15.80;14.13;;;10.10;76.70;;;8.70;83.00;97523.59;5085768;28;20445;-70
2021/10/31 03:49:16;;;;;;;16.63;14.97;;;10.00;76.80;;;8.68;83.17;97528.38;5094562;28;20509;-70
2021/10/31 03:51:46;;;;;;;16.43;14.73;;;9.90;78.20;;;8.67;83.54;97526.75;5088434;28;20496;-70
2021/10/31 03:54:13;;;;;;;16.40;14.70;;;9.80;78.60;;;8.57;83.79;97526.38;5084671;28;20451;-70
2021/10/31 03:56:40;;;;;;;14.80;13.20;;;9.70;79.10;;;8.41;84.64;97509.63;5086479;28;20593;-70
2021/10/31 03:59:07;;;;;;;16.47;14.80;;;9.60;79.60;;;8.27;85.55;97516.94;5087263;28;20469;-70
2021/10/31 04:01:35;;;;;;;18.70;16.80;;;9.50;80.30;;;8.33;84.60;97510.69;5085404;28;20462;-70
2021/10/31 04:04:03;;;;;;;18.73;15.57;;;9.50;80.80;;;8.21;85.04;97507.84;5079473;28;20472;-70
2021/10/31 04:06:31;;;;;;;16.37;14.83;;;9.40;81.00;;;8.16;85.30;97514.91;5085255;28;20552;-70
2021/10/31 04:08:58;;;;;;;17.60;15.70;;;9.40;81.00;;;8.06;86.37;97508.13;5085476;28;20896;-70
2021/10/31 04:11:25;;;;;;;16.73;15.00;;;9.20;82.10;;;8.07;86.57;97517.84;5084305;28;20467;-70
2021/10/31 04:13:52;;;;;;;15.93;14.30;;;9.20;82.50;;;8.01;86.36;97512.50;5082841;28;21004;-70
2021/10/31 04:16:19;;;;;;;17.80;15.60;;;9.20;82.70;;;8.01;86.92;97512.50;5088746;28;20468;-70
2021/10/31 04:18:46;;;;;;;18.73;16.73;;;9.10;83.10;;;7.86;87.72;97516.25;5083816;28;20510;-70
2021/10/31 04:21:13;;;;;;;17.17;15.50;;;9.00;84.20;;;7.93;87.66;97522.41;5080584;28;20460;-70
2021/10/31 04:23:43;;;;;;;18.93;16.93;;;9.10;84.50;;;8.02;87.41;97519.53;5099593;28;20453;-69
2021/10/31 04:26:10;;;;;;;17.57;14.50;;;9.10;84.80;;;7.96;87.81;97531.09;5064677;28;20457;-69
2021/10/31 04:28:36;;;;;;;17.73;15.90;;;9.10;84.90;;;7.99;88.58;97530.72;5088775;28;20455;-69
2021/10/31 04:31:03;;;;;;;16.50;14.87;;;9.10;85.10;;;8.00;88.57;97527.78;5118183;27;20554;-69
2021/10/31 04:33:30;;;;;;;17.97;16.07;;;9.10;85.50;;;7.93;88.21;97533.19;5083742;28;20523;-69
2021/10/31 04:35:58;;;;;;;18.70;16.70;;;9.20;85.40;;;7.92;88.41;97536.91;5087084;28;20909;-69
2021/10/31 04:38:28;;;;;;;18.07;15.70;;;9.20;85.10;;;7.86;88.39;97516.25;5085856;28;20529;-70
2021/10/31 04:40:57;;;;;;;19.83;16.00;;;9.10;85.20;;;7.88;88.48;97530.31;5087379;28;20951;-70
2021/10/31 04:43:25;;;;;;;17.93;16.10;;;9.10;85.20;;;7.84;88.58;97522.84;5081355;28;20463;-70
2021/10/31 04:45:54;;;;;;;17.83;15.83;;;9.10;85.60;;;7.78;88.91;97524.53;5087661;28;20559;-69
2021/10/31 04:48:23;;;;;;;16.67;15.03;;;9.00;85.60;;;7.61;89.70;97530.34;5089805;28;20467;-69
2021/10/31 04:50:50;;;;;;;17.53;15.90;;;8.90;86.20;;;7.55;89.96;97520.44;5084101;28;20968;-71
2021/10/31 04:53:17;;;;;;;18.83;16.57;;;8.80;86.70;;;7.60;89.99;97528.69;5085793;28;20484;-70
2021/10/31 04:55:44;;;;;;;17.83;15.93;;;8.80;87.40;;;7.68;89.44;97529.53;5087050;28;20503;-69
2021/10/31 04:58:13;;;;;;;21.37;19.07;;;8.90;86.70;;;7.60;89.83;97528.69;5087276;28;20455;-69
2021/10/31 05:00:41;;;;;;;19.17;16.83;;;8.80;86.90;;;7.61;89.63;97516.91;5118423;27;20464;-70
2021/10/31 05:03:08;;;;;;;20.53;17.23;;;8.90;86.90;;;7.62;89.66;97521.22;5089279;28;20463;-69
2021/10/31 05:05:36;;;;;;;19.40;16.63;;;8.90;86.60;;;7.69;88.77;97518.53;5085641;28;20859;-70
2021/10/31 05:08:04;;;;;;;19.57;17.47;;;8.90;86.30;;;7.65;88.87;97526.19;5080254;28;20822;-70
2021/10/31 05:10:31;;;;;;;18.77;16.77;;;8.90;86.00;;;7.62;89.34;97521.22;5086640;28;20481;-70
2021/10/31 05:12:58;;;;;;;20.60;17.80;;;8.90;86.50;;;7.62;89.30;97521.22;5085431;28;20543;-68
2021/10/31 05:15:27;;;;;;;21.80;18.93;;;8.90;86.60;;;7.67;88.77;97517.94;5086906;28;20464;-69
2021/10/31 05:17:55;;;;;;;20.30;18.30;;;8.90;86.30;;;7.23;89.57;97463.81;5085622;28;20455;-68
2021/10/31 05:20:23;;;;;;;22.90;19.73;;;8.80;86.40;;;7.53;89.32;97509.06;5079612;28;20456;-68
2021/10/31 05:22:50;;;;;;;21.60;19.30;;;8.80;86.70;;;7.57;89.37;97515.66;5084648;28;20543;-68
2021/10/31 05:25:17;;;;;;;21.70;19.20;;;8.80;86.70;;;7.59;89.30;97513.59;5085436;28;20568;-69
2021/10/31 05:27:44;;;;;;;20.87;18.60;;;8.80;86.20;;;7.56;89.40;97518.56;5083867;28;20446;-69
2021/10/31 05:30:13;;;;;;;19.87;17.43;;;8.80;86.20;;;7.49;89.58;97516.72;5084893;28;20491;-68
2021/10/31 05:32:43;;;;;;;20.17;18.07;;;8.80;86.50;;;7.58;88.90;97513.78;5077440;28;20463;-68
2021/10/31 05:35:12;;;;;;;18.47;16.40;;;8.80;86.20;;;7.49;89.16;97522.09;5078095;28;20466;-69
2021/10/31 05:37:42;;;;;;;20.30;16.13;;;8.70;86.60;;;7.53;88.92;97514.44;5085171;28;20495;-68
2021/10/31 05:40:12;;;;;;;18.90;16.90;;;8.80;86.20;;;7.54;89.17;97504.50;5081932;28;20475;-69
2021/10/31 05:42:40;;;;;;;20.63;17.97;;;8.80;86.30;;;7.58;89.16;97505.72;5080798;28;21404;-69
2021/10/31 05:45:09;;;;;;;17.87;16.03;;;8.80;86.10;;;7.53;88.92;97501.00;5083681;28;20464;-69
2021/10/31 05:47:37;;;;;;;20.90;18.70;;;8.80;86.30;;;7.52;89.13;97504.72;5080934;28;20549;-69
2021/10/31 05:50:08;;;;;;;18.57;16.00;;;8.80;85.90;;;7.47;88.93;97508.03;5083740;28;20527;-69
2021/10/31 05:52:36;;;;;;;21.87;17.47;;;8.80;85.80;;;7.49;88.98;97510.50;5082050;28;20507;-70
2021/10/31 05:55:06;;;;;;;21.77;19.47;;;8.70;86.20;;;7.48;88.44;97496.25;5088102;28;20499;-69
2021/10/31 05:57:33;;;;;;;21.37;18.33;;;8.70;85.80;;;7.44;89.15;97486.09;5082471;28;20827;-69
2021/10/31 06:00:03;;;;;;;19.70;17.60;;;8.70;85.80;;;7.46;89.07;97502.84;5082807;28;20563;-68
2021/10/31 06:02:30;;;;;;;20.20;17.43;;;8.70;86.00;;;7.46;88.96;97495.63;5080970;28;20445;-70
2021/10/31 06:04:58;;;;;;;18.40;16.43;;;8.70;85.90;;;7.50;88.64;97496.00;5078875;28;20551;-69
2021/10/31 06:07:27;;;;;;;19.40;17.40;;;8.70;86.00;;;7.43;89.22;97500.59;5082251;28;20471;-69
2021/10/31 06:09:54;;;;;;;20.67;18.50;;;8.70;86.10;;;7.43;89.09;97500.59;5075832;28;20815;-68
2021/10/31 06:12:21;;;;;;;22.37;19.03;;;8.70;86.30;;;7.48;88.70;97508.84;5083855;28;20587;-68
2021/10/31 06:14:49;;;;;;;21.53;18.00;;;8.70;86.10;;;7.46;89.03;97492.94;5082832;28;20456;-68
2021/10/31 06:17:16;;;;;;;20.20;17.17;;;8.70;86.00;;;7.37;89.30;97503.06;5082743;28;21163;-68
2021/10/31 06:19:43;;;;;;;21.97;18.77;;;8.70;85.90;;;7.45;89.30;97493.13;5082707;28;20452;-68
2021/10/31 06:22:10;;;;;;;20.20;16.43;;;8.70;86.30;;;7.45;89.10;97493.13;5080451;28;20516;-68
2021/10/31 06:24:38;;;;;;;20.27;18.17;;;8.70;86.10;;;7.05;88.61;97438.41;5082445;28;20535;-68
2021/10/31 06:27:06;;;;;;;21.53;19.10;;;8.70;86.20;;;7.55;88.88;97498.91;5083841;28;20550;-68
2021/10/31 06:29:33;;;;;;;19.97;17.60;;;8.80;86.30;;;7.48;88.76;97507.00;5079476;28;20455;-70
2021/10/31 06:32:00;;;;;;;23.30;18.87;;;8.70;85.80;;;7.54;88.40;97501.81;5085565;28;20508;-69
2021/10/31 06:34:27;;;;;;;21.40;19.10;;;8.80;85.90;;;7.59;88.56;97513.59;5086559;28;20549;-78
2021/10/31 06:36:54;;;;;;;20.00;17.90;;;8.80;85.60;;;7.57;88.32;97517.50;5082406;28;20562;-69
2021/10/31 06:39:21;;;;;;;20.93;18.73;;;8.80;85.20;;;7.54;87.93;97494.59;5091385;28;20456;-69
2021/10/31 06:41:49;;;;;;;22.17;19.33;;;8.90;85.20;;;7.65;88.17;97510.06;5083695;28;20570;-69
2021/10/31 06:44:16;;;;;;;20.63;18.43;;;8.90;85.20;;;7.73;87.82;97502.81;5084860;28;20555;-69
2021/10/31 06:46:43;;;;;;;19.80;17.70;;;9.00;84.80;;;7.63;87.91;97493.31;5118401;28;20528;-69
2021/10/31 06:49:12;;;;;;;23.47;18.07;;;8.90;84.50;;;7.82;87.00;97493.50;5079069;28;20494;-68
2021/10/31 06:51:39;;;;;;;20.03;17.97;;;9.00;84.20;;;7.96;87.01;97498.81;5085289;28;20462;-68
2021/10/31 06:54:06;;;;;;;20.97;18.77;;;9.10;84.40;;;8.04;85.78;97495.91;5084668;28;20637;-68
2021/10/31 06:56:33;;;;;;;19.60;17.40;;;9.20;83.10;;;8.25;86.12;97508.25;5086793;28;20571;-68
2021/10/31 06:59:02;;;;;;;19.73;17.67;;;9.40;83.70;;;8.29;84.69;97500.59;5083009;28;20542;-68
2021/10/31 07:01:29;;;;;;;22.40;18.30;;;9.50;82.50;;;8.33;84.20;97508.00;5082408;28;20963;-68
2021/10/31 07:03:56;;;;;;;21.97;19.40;;;9.50;81.80;;;8.34;83.94;97511.53;5089255;28;20463;-69
2021/10/31 07:06:23;;;;;;;20.17;18.03;;;9.60;81.50;;;8.37;83.91;97511.09;5086442;28;20456;-69
2021/10/31 07:08:50;;;;;;;20.20;18.00;;;9.60;81.20;;;8.39;84.05;97500.94;5085170;28;20540;-68
2021/10/31 07:11:17;;;;;;;20.43;18.23;;;9.60;81.20;;;8.47;83.81;97498.03;5082190;28;20508;-69
2021/10/31 07:13:44;;;;;;;20.33;18.23;;;9.70;81.10;;;8.49;83.58;97497.78;5083877;28;20484;-67
2021/10/31 07:16:12;;;;;;;20.50;18.37;;;9.70;80.90;;;8.68;82.67;97504.16;5086066;28;20464;-69
2021/10/31 07:18:39;;;;;;;19.27;16.97;;;9.90;80.20;;;8.78;82.36;97504.50;5081406;28;20471;-69
2021/10/31 07:21:06;;;;;;;20.93;18.73;;;9.90;79.80;;;8.59;82.23;97497.38;5086357;28;20472;-70
2021/10/31 07:23:34;;;;;;;20.07;17.97;;;9.90;79.50;;;8.85;81.35;97500.94;5086639;28;20624;-68
2021/10/31 07:26:01;;;;;;;21.80;18.90;;;10.10;78.20;;;9.02;80.79;97501.25;5088147;28;20448;-69
2021/10/31 07:28:28;;;;;;;18.73;16.83;;;10.10;77.80;;;9.13;79.95;97503.25;5083144;28;20517;-69
2021/10/31 07:30:57;;;;;;;20.87;18.37;;;10.30;77.20;;;9.13;79.89;97497.03;5083332;28;20460;-68
2021/10/31 07:33:26;;;;;;;22.17;19.87;;;10.30;76.70;;;9.33;79.25;97497.72;5117708;27;20808;-68
2021/10/31 07:35:53;;;;;;;22.17;19.10;;;10.50;76.50;;;9.38;78.97;97502.41;5080822;28;20465;-70
2021/10/31 07:38:20;;;;;;;21.13;18.10;;;10.50;76.00;;;9.16;78.23;97438.13;5083026;28;21043;-71
2021/10/31 07:40:47;;;;;;;20.77;18.53;;;10.60;75.90;;;9.70;77.74;97490.75;5087600;28;20463;-70
2021/10/31 07:43:14;;;;;;;21.10;18.70;;;10.70;75.60;;;9.59;77.97;97498.50;5083102;28;20468;-70
2021/10/31 07:45:41;;;;;;;20.93;18.60;;;10.70;74.90;;;9.88;77.55;97495.34;5088393;28;20448;-70
2021/10/31 07:48:09;;;;;;;21.03;18.83;;;10.90;74.70;;;9.86;76.27;97492.84;5082832;28;20547;-70
2021/10/31 07:50:37;;;;;;;20.50;18.30;;;11.00;74.50;;;9.76;77.19;97489.84;5086035;28;20456;-69
2021/10/31 07:53:09;;;;;;;19.87;17.77;;;11.00;74.20;;;10.14;75.46;97513.13;5115211;27;20492;-70
2021/10/31 07:55:38;;;;;;;20.00;17.80;;;11.20;73.60;;;10.15;75.45;97503.13;5081725;28;20449;-70
2021/10/31 07:58:07;;;;;;;20.77;18.37;;;11.30;73.00;;;10.27;75.05;97505.91;5104358;27;20467;-68
2021/10/31 08:00:36;;;;;;;23.67;20.00;;;11.30;72.60;;;10.27;75.23;97508.63;5101882;28;20962;-69
2021/10/31 08:03:03;;;;;;;19.97;17.97;;;11.40;72.30;;;9.99;75.47;97469.47;5084287;28;20465;-69
2021/10/31 08:05:32;;;;;;;20.33;18.07;;;11.40;72.20;;;10.30;74.71;97500.88;5088644;28;20527;-69
2021/10/31 08:08:00;;;;;;;20.63;18.27;;;11.40;71.60;;;10.40;74.52;97500.34;5085627;28;20444;-70
2021/10/31 08:10:28;;;;;;;21.10;19.00;;;11.50;71.60;;;10.37;74.43;97489.97;5115395;27;20452;-68
2021/10/31 08:12:55;;;;;;;21.67;19.40;;;11.50;71.00;;;10.56;73.94;97498.13;5088628;28;20460;-69
2021/10/31 08:15:22;;;;;;;19.63;17.60;;;11.60;70.90;;;10.68;73.45;97496.25;5084898;28;20444;-69
2021/10/31 08:17:49;;;;;;;20.17;18.20;;;11.80;70.80;;;10.99;72.62;97486.25;5086096;28;20559;-69
2021/10/31 08:20:16;;;;;;;19.80;17.70;;;11.90;70.30;;;11.10;71.70;97487.38;5084006;28;20452;-68
2021/10/31 08:22:44;;;;;;;20.63;18.47;;;12.10;70.00;;;10.92;71.97;97493.66;5100229;28;20543;-69
2021/10/31 08:25:12;;;;;;;21.30;18.93;;;12.10;69.70;;;11.11;71.86;97482.75;5085148;28;20463;-68
2021/10/31 08:27:40;;;;;;;20.23;18.13;;;12.10;69.50;;;11.09;71.79;97484.88;5080858;28;21011;-70
2021/10/31 08:30:09;;;;;;;20.63;18.53;;;12.20;69.10;;;11.05;71.61;97490.75;5083047;28;21357;-69
2021/10/31 08:32:45;;;;;;;18.80;16.80;;;12.20;68.90;;;11.26;71.33;97485.03;5084552;28;20545;-71
2021/10/31 08:35:12;;;;;;;20.13;18.03;;;12.40;68.80;;;11.57;71.00;97488.47;5118586;27;20459;-69
2021/10/31 08:37:39;;;;;;;19.73;17.77;;;12.60;68.60;;;11.44;70.56;97484.94;5087682;28;20807;-70
2021/10/31 08:40:08;;;;;;;19.43;17.37;;;12.60;67.80;;;11.41;70.16;97471.03;5085207;28;20494;-69
2021/10/31 08:42:37;;;;;;;18.60;16.67;;;12.60;67.80;;;11.44;70.28;97481.38;5083460;28;20456;-69
2021/10/31 08:45:06;;;;;;;19.77;17.77;;;12.60;67.50;;;11.47;70.64;97476.34;5116243;27;20547;-70
2021/10/31 08:47:33;;;;;;;19.97;17.80;;;12.60;67.70;;;11.67;70.21;97463.53;5088026;28;20448;-70
2021/10/31 08:50:00;;;;;;;18.30;16.40;;;12.70;67.70;;;11.92;69.36;97462.47;5084882;28;20559;-71
2021/10/31 08:52:28;;;;;;;17.70;16.00;;;12.90;67.30;;;12.11;68.79;97458.56;5082817;28;20468;-71
2021/10/31 08:54:55;;;;;;;18.67;16.77;;;13.10;67.10;;;12.33;67.30;97466.84;5084850;28;20456;-70
2021/10/31 08:57:22;;;;;;;17.57;15.97;;;13.30;66.00;;;12.19;68.09;97455.47;5082494;28;20479;-70
2021/10/31 08:59:50;;;;;;;18.47;16.47;;;13.40;66.10;;;12.32;67.63;97453.53;5084144;28;20492;-70
2021/10/31 09:02:17;;;;;;;18.10;16.30;;;13.40;65.70;;;12.31;67.30;97441.06;5086224;28;20488;-71
2021/10/31 09:04:44;;;;;;;17.73;15.83;;;13.40;65.30;;;12.62;66.49;97447.06;5082655;28;20462;-76
2021/10/31 09:07:14;;;;;;;17.00;15.20;;;13.60;65.30;;;12.86;65.89;97441.53;5086100;28;20456;-75
2021/10/31 09:09:42;;;;;;;15.37;13.97;;;13.80;64.90;;;12.73;65.43;97438.06;5085368;28;20979;-74
2021/10/31 09:12:11;;;;;;;16.90;15.30;;;13.80;64.10;;;12.97;65.07;97435.25;5080376;28;20477;-73
2021/10/31 09:14:38;;;;;;;15.40;13.80;;;13.90;63.90;;;13.31;63.94;97423.53;5116171;27;20635;-74
2021/10/31 09:17:06;;;;;;;15.10;13.67;;;14.20;63.40;;;13.29;63.87;97429.25;5087796;28;20476;-74
2021/10/31 09:19:34;;;;;;;14.67;13.30;;;14.40;62.90;;;13.35;65.65;97410.31;5080027;28;20547;-73
2021/10/31 09:22:01;;;;;;;13.80;12.60;;;14.30;63.60;;;13.58;63.04;97409.31;5084226;28;20471;-74
2021/10/31 09:24:29;;;;;;;14.17;12.63;;;14.50;62.40;;;13.86;61.95;97397.47;5081767;28;20947;-74
2021/10/31 09:26:56;;;;;;;13.67;12.30;;;14.70;62.10;;;14.01;61.42;97406.88;5086926;28;20542;-72
2021/10/31 09:29:23;;;;;;;12.50;11.30;;;15.00;61.70;;;13.83;61.69;97395.28;5085897;28;20516;-72
2021/10/31 09:31:52;;;;;;;12.60;11.30;;;14.90;61.00;;;13.90;61.69;97395.09;5084129;28;21179;-74
2021/10/31 09:34:21;;;;;;;13.63;12.27;;;14.90;60.80;;;13.92;61.86;97389.41;5080402;28;20937;-76
2021/10/31 09:36:48;;;;;;;13.80;12.40;;;14.90;61.10;;;14.00;61.45;97395.22;5086943;28;20784;-73
2021/10/31 09:39:15;;;;;;;13.07;11.90;;;15.00;60.80;;;14.19;60.70;97391.38;5074569;28;20484;-73
2021/10/31 09:41:43;;;;;;;12.60;11.30;;;15.20;60.30;;;14.13;60.18;97372.28;5097626;28;20542;-74
2021/10/31 09:44:15;;;;;;;13.00;11.80;;;15.30;59.90;;;14.51;59.30;97385.19;5079998;28;20459;-71
2021/10/31 09:46:43;;;;;;;11.53;10.40;;;15.50;59.70;;;14.41;59.18;97381.28;5087226;28;20452;-73
2021/10/31 09:49:12;;;;;;;10.57;9.57;;;15.50;59.00;;;14.56;58.94;97385.22;5084009;28;20452;-69
2021/10/31 09:51:42;;;;;;;12.60;11.33;;;15.50;58.90;;;15.06;58.09;97371.53;5080904;28;21322;-69
2021/10/31 09:54:10;;;;;;;11.00;9.90;;;15.80;59.20;;;15.09;57.91;97377.28;5081786;28;20526;-70
2021/10/31 09:56:38;;;;;;;12.03;10.83;;;16.00;58.80;;;15.28;57.36;97369.53;5091198;28;20449;-69
2021/10/31 09:59:10;;;;;;;10.43;9.43;;;16.20;58.30;;;15.30;57.08;97367.34;5080715;28;20562;-70
2021/10/31 10:02:11;;;;;;;11.00;10.00;;;16.30;58.00;;;15.33;56.89;97362.47;5097419;28;20467;-69
2021/10/31 10:04:48;;;;;;;10.10;8.80;;;16.30;57.60;;;15.27;55.94;97365.16;5081868;28;20464;-69
2021/10/31 10:07:18;;;;;;;10.50;9.33;;;16.30;57.30;;;15.37;55.57;97366.31;5079191;28;20644;-68
2021/10/31 10:09:54;;;;;;;9.80;8.83;;;16.40;57.10;;;15.33;56.04;97357.03;5084069;28;20463;-70
2021/10/31 10:12:23;;;;;;;9.50;8.60;;;16.40;57.00;;;15.35;55.18;97346.69;5096884;28;20990;-70
2021/10/31 10:14:58;;;;;;;9.57;8.67;;;16.40;56.60;;;15.20;55.63;97340.06;5082958;28;20984;-69
2021/10/31 10:17:25;;;;;;;9.80;9.00;;;16.20;56.50;;;15.34;55.50;97336.91;5083355;28;20554;-69
2021/10/31 10:19:56;;;;;;;11.23;9.47;;;16.30;56.60;;;15.50;54.83;97326.94;5083694;28;20566;-70
2021/10/31 10:22:27;;;;;;;8.30;7.50;;;16.50;56.60;;;15.81;54.66;97332.50;5083835;28;20456;-69